Time;durP1;ratioP1;P1;durP2;ratioP2;P2;SDS_P1;SDS_P2;PMS_P1;PMS_P2;Temp;Humidity;BMP_temperature;BMP_pressure;BME280_temperature;BME280_humidity;BME280_pressure;Samples;Min_cycle;Max_cycle;Signal;HPM_P1;HPM_P2
2022/04/08 00:01:26;;;;;;;11.50;2.83;;;7.50;98.00;;;;;;5031362;28;20407;-66
2022/04/08 00:03:52;;;;;;;9.18;2.17;;;7.50;98.00;;;;;;5031109;28;20036;-66
2022/04/08 00:06:19;;;;;;;10.20;2.95;;;7.60;98.00;;;;;;5020429;28;20030;-66
2022/04/08 00:08:48;;;;;;;11.00;3.10;;;7.60;98.00;;;;;;5021226;28;20034;-66
2022/04/08 00:11:15;;;;;;;13.13;3.15;;;7.50;97.60;;;;;;5016397;28;20124;-66
2022/04/08 00:13:40;;;;;;;14.77;3.22;;;7.50;97.20;;;;;;5021414;28;20310;-65
2022/04/08 00:16:10;;;;;;;8.52;2.63;;;7.50;96.90;;;;;;5028456;28;20022;-66
2022/04/08 00:18:39;;;;;;;13.15;3.08;;;7.50;96.60;;;;;;5030814;28;20017;-65
2022/04/08 00:21:05;;;;;;;10.65;3.60;;;7.50;96.30;;;;;;5031629;28;20368;-66
2022/04/08 00:23:31;;;;;;;10.65;2.78;;;7.50;96.00;;;;;;5034974;28;20029;-66
2022/04/08 00:25:57;;;;;;;10.25;2.60;;;7.40;96.10;;;;;;5033941;28;20068;-65
2022/04/08 00:28:28;;;;;;;9.05;2.45;;;7.40;95.00;;;;;;5017068;28;20371;-67
2022/04/08 00:30:54;;;;;;;11.13;2.20;;;7.40;95.30;;;;;;5023712;28;20168;-66
2022/04/08 00:33:19;;;;;;;12.27;2.70;;;7.40;94.70;;;;;;5034950;28;20113;-66
2022/04/08 00:35:45;;;;;;;10.82;3.20;;;7.40;94.60;;;;;;5023440;28;20392;-66
2022/04/08 00:38:11;;;;;;;11.18;2.55;;;7.40;94.60;;;;;;5027551;28;20029;-66
2022/04/08 00:40:36;;;;;;;9.63;2.53;;;7.30;95.10;;;;;;5027208;28;20032;-66
2022/04/08 00:43:16;;;;;;;10.73;2.10;;;7.30;95.30;;;;;;5024186;28;20038;-66
2022/04/08 00:45:43;;;;;;;12.88;3.08;;;7.30;94.80;;;;;;5026780;28;20112;-65
2022/04/08 00:48:09;;;;;;;14.75;2.78;;;7.30;94.80;;;;;;5020085;28;20026;-66
2022/04/08 00:50:41;;;;;;;13.35;2.60;;;7.30;95.00;;;;;;5030587;28;20028;-65
2022/04/08 00:53:07;;;;;;;12.02;2.88;;;7.20;95.10;;;;;;5026854;28;20421;-65
2022/04/08 00:55:35;;;;;;;9.05;2.35;;;7.20;94.80;;;;;;5036749;28;20029;-65
2022/04/08 00:58:03;;;;;;;7.32;2.08;;;7.20;95.10;;;;;;5028509;28;20048;-65
2022/04/08 01:00:33;;;;;;;10.32;2.20;;;7.20;94.80;;;;;;5036720;28;20025;-64
2022/04/08 01:03:05;;;;;;;13.70;2.60;;;7.20;95.00;;;;;;5028799;28;20374;-64
2022/04/08 01:05:32;;;;;;;10.65;2.17;;;7.20;95.20;;;;;;5033946;28;20029;-66
2022/04/08 01:07:58;;;;;;;10.85;2.58;;;7.10;95.60;;;;;;5019625;28;20030;-67
2022/04/08 01:10:24;;;;;;;14.48;2.83;;;7.10;95.90;;;;;;5032640;28;20473;-66
2022/04/08 01:12:50;;;;;;;12.00;2.58;;;7.10;95.80;;;;;;5037867;28;20377;-67
2022/04/08 01:15:21;;;;;;;11.07;2.97;;;7.10;96.00;;;;;;5027304;28;20074;-67
2022/04/08 01:17:47;;;;;;;10.98;2.50;;;7.10;95.70;;;;;;5028947;28;20148;-65
2022/04/08 01:20:13;;;;;;;12.75;2.67;;;7.10;96.00;;;;;;5023116;28;20022;-67
2022/04/08 01:22:39;;;;;;;11.02;2.40;;;7.10;96.40;;;;;;5034556;28;20032;-64
2022/04/08 01:25:06;;;;;;;15.25;2.97;;;7.10;96.50;;;;;;5022236;28;20036;-66
2022/04/08 01:27:32;;;;;;;9.85;2.88;;;7.10;96.50;;;;;;5035465;28;20422;-66
2022/04/08 01:29:58;;;;;;;12.98;2.30;;;7.10;96.80;;;;;;5029592;28;20110;-67
2022/04/08 01:32:27;;;;;;;9.02;2.33;;;7.10;96.70;;;;;;5020225;28;20109;-66
2022/04/08 01:34:53;;;;;;;11.93;2.60;;;7.10;96.70;;;;;;5035609;28;20440;-65
2022/04/08 01:37:22;;;;;;;10.88;2.80;;;7.00;97.10;;;;;;5036553;28;20021;-66
2022/04/08 01:39:47;;;;;;;9.88;2.30;;;7.00;97.00;;;;;;5019864;28;20543;-66
2022/04/08 01:42:13;;;;;;;11.02;2.35;;;7.10;96.80;;;;;;5029670;28;20037;-66
2022/04/08 01:44:40;;;;;;;10.77;2.35;;;7.00;96.80;;;;;;5032030;28;20077;-66
2022/04/08 01:47:05;;;;;;;7.95;2.10;;;7.00;97.20;;;;;;5033797;28;20029;-66
2022/04/08 01:49:31;;;;;;;12.45;2.90;;;7.00;97.20;;;;;;5023531;28;20441;-66
2022/04/08 01:51:57;;;;;;;10.48;2.28;;;7.00;97.30;;;;;;5031448;28;20476;-66
2022/04/08 01:54:23;;;;;;;9.75;2.40;;;7.00;97.60;;;;;;5033408;28;20100;-66
2022/04/08 01:56:49;;;;;;;10.35;2.25;;;7.00;97.40;;;;;;5019883;28;20034;-66
2022/04/08 01:59:15;;;;;;;11.30;2.00;;;7.10;97.10;;;;;;5022091;28;20018;-66
2022/04/08 02:01:41;;;;;;;9.90;2.13;;;7.10;97.10;;;;;;5030558;28;20061;-66
2022/04/08 02:04:07;;;;;;;7.50;1.70;;;7.10;96.70;;;;;;5027877;28;20017;-66
2022/04/08 02:06:34;;;;;;;6.13;1.80;;;7.10;96.80;;;;;;5033323;28;20056;-66
2022/04/08 02:09:00;;;;;;;10.30;1.98;;;7.00;96.70;;;;;;5018108;28;20034;-66
2022/04/08 02:11:28;;;;;;;10.77;2.00;;;7.10;95.50;;;;;;5035453;28;20049;-66
2022/04/08 02:13:57;;;;;;;9.43;1.90;;;7.10;94.90;;;;;;5019149;28;20030;-66
2022/04/08 02:16:23;;;;;;;9.82;2.25;;;7.10;94.80;;;;;;5034649;28;20372;-66
2022/04/08 02:18:49;;;;;;;7.40;2.10;;;7.10;94.50;;;;;;5021868;28;20120;-66
2022/04/08 02:21:19;;;;;;;9.60;2.00;;;7.10;95.00;;;;;;5035855;28;20025;-65
2022/04/08 02:23:48;;;;;;;7.60;2.38;;;7.00;95.10;;;;;;5021882;28;20049;-66
2022/04/08 02:26:16;;;;;;;9.23;1.90;;;7.00;95.10;;;;;;5029761;28;20057;-65
2022/04/08 02:28:42;;;;;;;8.15;1.90;;;7.00;94.80;;;;;;5030956;28;20026;-66
2022/04/08 02:31:08;;;;;;;6.55;2.10;;;7.00;94.70;;;;;;5023144;28;20025;-66
2022/04/08 02:33:34;;;;;;;12.20;2.45;;;7.00;94.80;;;;;;5028559;28;20029;-66
2022/04/08 02:36:00;;;;;;;8.25;2.88;;;6.90;94.10;;;;;;5029254;28;20026;-66
2022/04/08 02:38:26;;;;;;;9.93;2.38;;;6.90;93.40;;;;;;5023325;28;20046;-66
2022/04/08 02:40:52;;;;;;;10.70;2.00;;;6.90;93.40;;;;;;5023925;28;20024;-66
2022/04/08 02:43:18;;;;;;;10.50;1.75;;;6.90;93.60;;;;;;5020103;28;20038;-66
2022/04/08 02:45:43;;;;;;;8.75;2.20;;;6.90;93.70;;;;;;5023223;28;20044;-66
2022/04/08 02:48:09;;;;;;;6.90;2.03;;;6.80;93.00;;;;;;5031693;28;20082;-66
2022/04/08 02:50:35;;;;;;;7.22;2.05;;;6.80;92.80;;;;;;5026843;28;20032;-65
2022/04/08 02:53:01;;;;;;;5.20;1.65;;;6.80;92.60;;;;;;5033728;28;20307;-66
2022/04/08 02:55:26;;;;;;;8.35;2.25;;;6.80;92.70;;;;;;5030951;28;20026;-66
2022/04/08 02:57:52;;;;;;;7.15;2.00;;;6.80;93.30;;;;;;5017462;28;20418;-66
2022/04/08 03:00:20;;;;;;;8.23;1.90;;;6.70;93.70;;;;;;5019500;28;20437;-66
2022/04/08 03:02:48;;;;;;;7.95;1.98;;;6.70;93.30;;;;;;5033504;28;20029;-66
2022/04/08 03:05:14;;;;;;;10.18;2.45;;;6.70;93.50;;;;;;5032038;28;20495;-66
2022/04/08 03:07:41;;;;;;;9.55;2.45;;;6.70;93.90;;;;;;5031436;28;20025;-66
2022/04/08 03:10:08;;;;;;;10.02;2.40;;;6.60;94.20;;;;;;5023105;28;20500;-66
2022/04/08 03:12:34;;;;;;;10.48;2.78;;;6.60;94.70;;;;;;5029760;28;20137;-66
2022/04/08 03:15:04;;;;;;;8.32;2.10;;;6.50;95.20;;;;;;5033278;28;20061;-66
2022/04/08 03:17:30;;;;;;;8.30;1.98;;;6.50;95.30;;;;;;5028476;28;20022;-66
2022/04/08 03:19:57;;;;;;;11.60;2.20;;;6.50;95.40;;;;;;5016856;28;20028;-66
2022/04/08 03:22:23;;;;;;;13.35;3.35;;;6.50;95.10;;;;;;5024451;28;20330;-68
2022/04/08 03:24:49;;;;;;;11.35;2.63;;;6.40;95.50;;;;;;5036259;28;20104;-66
2022/04/08 03:27:15;;;;;;;7.88;2.28;;;6.40;96.10;;;;;;5017394;28;20482;-66
2022/04/08 03:29:41;;;;;;;11.15;2.05;;;6.30;96.10;;;;;;5017734;28;20097;-66
2022/04/08 03:32:07;;;;;;;6.18;2.45;;;6.30;95.50;;;;;;5022852;28;20489;-65
2022/04/08 03:34:33;;;;;;;7.75;1.60;;;6.40;94.90;;;;;;5031516;28;20025;-65
2022/04/08 03:36:59;;;;;;;8.38;1.98;;;6.40;95.10;;;;;;5026677;28;20037;-65
2022/04/08 03:39:24;;;;;;;12.25;2.03;;;6.40;94.80;;;;;;5026608;28;20029;-66
2022/04/08 03:41:50;;;;;;;9.57;2.53;;;6.40;95.00;;;;;;5023413;28;20029;-66
2022/04/08 03:44:16;;;;;;;12.77;2.25;;;6.40;94.80;;;;;;5024148;28;20025;-66
2022/04/08 03:46:43;;;;;;;7.13;2.20;;;6.40;95.20;;;;;;5027543;28;20025;-65
2022/04/08 03:49:21;;;;;;;8.43;2.17;;;6.30;95.40;;;;;;5023388;28;20089;-65
2022/04/08 03:51:47;;;;;;;9.82;2.15;;;6.40;95.10;;;;;;5022001;28;20025;-65
2022/04/08 03:54:13;;;;;;;14.13;2.70;;;6.30;95.50;;;;;;5018044;28;20144;-64
2022/04/08 03:56:45;;;;;;;6.90;1.65;;;6.30;95.10;;;;;;5023912;28;20076;-66
2022/04/08 03:59:13;;;;;;;7.88;2.15;;;6.40;94.50;;;;;;5018036;28;20026;-67
2022/04/08 04:01:39;;;;;;;6.18;1.92;;;6.40;94.70;;;;;;5026427;28;20080;-67
2022/04/08 04:04:05;;;;;;;9.13;2.40;;;6.40;94.60;;;;;;5018810;28;20025;-67
2022/04/08 04:06:33;;;;;;;9.57;2.40;;;6.40;94.50;;;;;;5024710;28;20029;-67
2022/04/08 04:09:01;;;;;;;7.35;2.17;;;6.40;94.50;;;;;;5023173;28;20422;-67
2022/04/08 04:11:29;;;;;;;12.02;2.10;;;6.40;95.00;;;;;;5021107;28;20041;-66
2022/04/08 04:13:55;;;;;;;13.75;4.20;;;6.40;95.00;;;;;;5026244;28;20045;-67
2022/04/08 04:16:20;;;;;;;11.05;2.55;;;6.40;95.10;;;;;;5022408;28;20048;-66
2022/04/08 04:18:46;;;;;;;13.60;3.35;;;6.40;95.00;;;;;;5033492;28;20022;-66
2022/04/08 04:21:12;;;;;;;10.77;2.10;;;6.40;95.10;;;;;;5032352;28;20327;-66
2022/04/08 04:23:38;;;;;;;5.60;1.83;;;6.30;95.20;;;;;;5018361;28;20026;-66
2022/04/08 04:26:06;;;;;;;9.30;2.40;;;6.40;95.60;;;;;;5025190;28;20045;-66
2022/04/08 04:28:35;;;;;;;8.95;2.00;;;6.30;95.60;;;;;;5040281;28;20044;-66
2022/04/08 04:31:03;;;;;;;11.85;2.20;;;6.20;96.30;;;;;;5029097;28;20120;-66
2022/04/08 04:33:32;;;;;;;8.48;2.45;;;6.10;96.90;;;;;;5030886;28;20053;-66
2022/04/08 04:35:57;;;;;;;10.48;2.30;;;6.00;97.30;;;;;;5033378;28;20026;-66
2022/04/08 04:38:23;;;;;;;11.77;2.25;;;6.00;97.60;;;;;;5042376;28;20070;-66
2022/04/08 04:40:49;;;;;;;13.23;3.10;;;5.90;98.00;;;;;;5038142;28;20052;-66
2022/04/08 04:43:15;;;;;;;9.23;2.60;;;5.90;97.80;;;;;;5028806;28;20093;-66
2022/04/08 04:45:41;;;;;;;7.75;2.05;;;5.90;97.90;;;;;;5025162;28;20251;-66
2022/04/08 04:48:08;;;;;;;8.40;2.50;;;5.80;97.90;;;;;;5031491;28;20081;-66
2022/04/08 04:50:33;;;;;;;9.30;2.22;;;5.80;98.00;;;;;;5032387;28;20037;-66
2022/04/08 04:52:59;;;;;;;9.98;2.13;;;5.90;97.70;;;;;;5039288;28;20032;-66
2022/04/08 04:55:25;;;;;;;10.75;2.50;;;5.90;97.80;;;;;;5026091;28;20296;-66
2022/04/08 04:57:51;;;;;;;8.10;2.45;;;5.90;98.00;;;;;;5039361;28;20031;-66
2022/04/08 05:00:18;;;;;;;8.07;2.10;;;5.90;98.00;;;;;;5028719;28;20105;-66
2022/04/08 05:02:44;;;;;;;8.57;2.20;;;5.80;98.00;;;;;;5035819;28;20032;-67
2022/04/08 05:05:10;;;;;;;9.55;2.10;;;5.80;98.00;;;;;;5022297;28;20702;-65
2022/04/08 05:07:35;;;;;;;10.95;2.38;;;5.80;98.00;;;;;;5031536;28;20053;-65
2022/04/08 05:10:03;;;;;;;7.22;2.00;;;5.70;98.00;;;;;;5039718;28;20053;-66
2022/04/08 05:12:28;;;;;;;7.97;2.20;;;5.70;98.00;;;;;;5033025;28;20050;-66
2022/04/08 05:14:54;;;;;;;8.70;1.88;;;5.70;98.00;;;;;;5028439;28;20053;-66
2022/04/08 05:17:20;;;;;;;11.90;2.53;;;5.70;98.00;;;;;;5023361;28;20029;-66
2022/04/08 05:19:45;;;;;;;7.88;2.03;;;5.60;98.00;;;;;;5029527;28;20029;-67
2022/04/08 05:22:13;;;;;;;10.38;2.83;;;5.60;98.00;;;;;;5023996;28;20343;-67
2022/04/08 05:24:39;;;;;;;8.93;2.67;;;5.50;98.00;;;;;;5041753;28;20021;-67
2022/04/08 05:27:06;;;;;;;6.78;2.63;;;5.40;98.00;;;;;;5041679;28;20140;-67
2022/04/08 05:29:32;;;;;;;6.57;2.30;;;5.40;98.00;;;;;;5026560;28;20025;-67
2022/04/08 05:31:58;;;;;;;10.07;2.72;;;5.30;98.00;;;;;;5020832;28;20422;-67
2022/04/08 05:34:27;;;;;;;8.43;2.30;;;5.30;98.00;;;;;;5021911;28;20018;-67
2022/04/08 05:36:53;;;;;;;8.10;2.40;;;5.30;98.00;;;;;;5023480;28;20030;-67
2022/04/08 05:39:19;;;;;;;9.75;2.63;;;5.20;98.00;;;;;;5036526;28;20033;-67
2022/04/08 05:41:44;;;;;;;9.57;2.38;;;5.20;98.00;;;;;;5038582;28;20060;-67
2022/04/08 05:44:10;;;;;;;12.13;4.07;;;5.10;98.00;;;;;;5022748;28;20030;-67
2022/04/08 05:46:36;;;;;;;7.43;2.67;;;5.10;98.00;;;;;;5017516;28;20030;-68
2022/04/08 05:49:02;;;;;;;7.30;2.92;;;5.10;98.00;;;;;;5019893;28;20187;-68
2022/04/08 05:51:28;;;;;;;7.88;2.42;;;5.10;98.00;;;;;;5018544;28;20040;-68
2022/04/08 05:53:53;;;;;;;9.73;3.25;;;5.00;98.00;;;;;;5035188;28;20025;-68
2022/04/08 05:56:19;;;;;;;8.85;2.90;;;5.00;98.00;;;;;;5038378;28;20470;-68
2022/04/08 05:58:45;;;;;;;11.07;2.72;;;4.90;98.00;;;;;;5038018;28;20056;-68
2022/04/08 06:01:12;;;;;;;11.05;3.17;;;4.90;98.00;;;;;;5036139;28;20033;-68
2022/04/08 06:03:41;;;;;;;8.80;2.80;;;4.90;97.50;;;;;;5027660;28;20052;-68
2022/04/08 06:06:07;;;;;;;9.30;2.65;;;4.80;97.50;;;;;;5019559;28;20030;-68
2022/04/08 06:08:33;;;;;;;8.25;2.83;;;4.80;97.50;;;;;;5025918;28;20296;-68
2022/04/08 06:11:04;;;;;;;9.13;3.05;;;4.70;97.30;;;;;;5031123;28;20393;-68
2022/04/08 06:13:30;;;;;;;11.52;2.65;;;4.70;97.00;;;;;;5018307;28;20026;-68
2022/04/08 06:15:58;;;;;;;11.98;3.22;;;4.60;97.30;;;;;;5020231;28;20021;-68
2022/04/08 06:18:24;;;;;;;13.60;4.45;;;4.60;96.40;;;;;;5038009;28;20334;-68
2022/04/08 06:20:49;;;;;;;11.55;3.78;;;4.60;95.60;;;;;;5034763;28;20022;-68
2022/04/08 06:23:15;;;;;;;9.02;2.95;;;4.60;95.50;;;;;;5018143;28;20437;-68
2022/04/08 06:25:44;;;;;;;16.15;5.15;;;4.60;95.90;;;;;;5018477;28;20316;-68
2022/04/08 06:28:15;;;;;;;10.60;3.30;;;4.50;95.90;;;;;;5018121;28;20029;-69
2022/04/08 06:30:41;;;;;;;9.63;3.60;;;4.50;95.90;;;;;;5017392;28;20026;-68
2022/04/08 06:33:08;;;;;;;10.10;3.05;;;4.50;95.00;;;;;;5037447;28;20017;-69
2022/04/08 06:35:37;;;;;;;9.35;2.50;;;4.50;95.40;;;;;;5036595;28;20433;-68
2022/04/08 06:38:07;;;;;;;10.07;3.42;;;4.50;95.20;;;;;;5026499;28;20323;-69
2022/04/08 06:40:38;;;;;;;12.63;3.45;;;4.50;94.30;;;;;;5018281;28;20048;-69
2022/04/08 06:43:05;;;;;;;8.13;2.78;;;4.50;94.10;;;;;;5017606;28;20040;-68
2022/04/08 06:45:31;;;;;;;9.02;2.90;;;4.60;94.50;;;;;;5016915;28;20029;-68
2022/04/08 06:47:57;;;;;;;8.10;2.97;;;4.60;94.50;;;;;;5016232;28;20061;-68
2022/04/08 06:50:23;;;;;;;6.60;2.60;;;4.60;94.00;;;;;;5037137;28;20053;-68
2022/04/08 06:52:49;;;;;;;11.10;4.30;;;4.70;93.70;;;;;;5037447;28;20021;-68
2022/04/08 06:55:15;;;;;;;7.47;2.65;;;4.60;94.00;;;;;;5019269;28;20053;-70
2022/04/08 06:57:42;;;;;;;7.10;3.33;;;4.70;93.70;;;;;;5036274;28;20096;-70
2022/04/08 07:00:10;;;;;;;7.13;3.10;;;4.80;93.60;;;;;;5036340;28;20017;-70
2022/04/08 07:02:36;;;;;;;7.68;2.65;;;4.80;93.80;;;;;;5033829;28;20052;-70
2022/04/08 07:05:03;;;;;;;6.65;4.05;;;4.90;94.00;;;;;;5017378;28;20064;-70
2022/04/08 07:07:32;;;;;;;5.88;2.20;;;4.90;94.30;;;;;;5017494;28;20018;-69
2022/04/08 07:10:00;;;;;;;7.00;3.08;;;4.90;95.00;;;;;;5017419;28;20030;-69
2022/04/08 07:12:26;;;;;;;5.45;2.88;;;5.00;94.80;;;;;;5020527;28;20045;-69
2022/04/08 07:14:52;;;;;;;6.13;1.75;;;5.10;95.20;;;;;;5018926;28;20112;-70
2022/04/08 07:17:31;;;;;;;7.65;2.33;;;5.10;96.30;;;;;;5016127;28;20491;-68
2022/04/08 07:19:57;;;;;;;4.75;2.10;;;5.10;97.00;;;;;;5017334;28;20026;-69
2022/04/08 07:22:23;;;;;;;4.90;1.95;;;5.00;96.70;;;;;;5017089;28;20110;-69
2022/04/08 07:24:50;;;;;;;9.18;2.70;;;5.00;96.10;;;;;;5033653;28;20030;-69
2022/04/08 07:27:17;;;;;;;3.63;1.65;;;5.00;96.20;;;;;;5036696;28;20021;-69
2022/04/08 07:29:43;;;;;;;5.50;1.80;;;5.10;96.30;;;;;;5031862;28;20029;-69
2022/04/08 07:32:09;;;;;;;7.88;2.50;;;5.10;98.00;;;;;;5035400;28;20032;-69
2022/04/08 07:34:38;;;;;;;11.18;3.38;;;5.10;96.30;;;;;;5036069;28;20127;-69
2022/04/08 07:37:04;;;;;;;6.30;2.53;;;5.10;97.50;;;;;;5036746;28;20029;-69
2022/04/08 07:39:35;;;;;;;7.57;3.40;;;5.10;96.30;;;;;;5034800;28;20025;-69
2022/04/08 07:42:04;;;;;;;7.35;3.00;;;5.10;96.60;;;;;;5035498;28;20021;-69
2022/04/08 07:44:29;;;;;;;5.75;2.28;;;5.10;96.50;;;;;;5030551;28;20039;-69
2022/04/08 07:46:55;;;;;;;4.88;2.08;;;5.10;96.20;;;;;;5033417;28;20112;-69
2022/04/08 07:49:21;;;;;;;7.90;3.33;;;5.20;97.90;;;;;;5036345;28;20029;-69
2022/04/08 07:51:48;;;;;;;6.35;2.55;;;5.20;97.00;;;;;;5026163;28;20414;-69
2022/04/08 07:54:14;;;;;;;5.90;2.67;;;5.30;97.00;;;;;;5015471;28;20515;-69
2022/04/08 07:56:43;;;;;;;9.68;4.15;;;5.40;96.20;;;;;;5018790;28;20097;-69
2022/04/08 07:59:11;;;;;;;4.57;1.60;;;5.50;97.00;;;;;;5015967;28;20360;-69
2022/04/08 08:01:39;;;;;;;3.28;1.33;;;5.50;98.00;;;;;;5026498;28;20076;-69
2022/04/08 08:04:05;;;;;;;2.95;1.38;;;5.50;97.60;;;;;;5035812;28;20033;-68
2022/04/08 08:06:31;;;;;;;4.05;1.52;;;5.50;97.10;;;;;;5032796;28;20117;-68
2022/04/08 08:08:58;;;;;;;5.22;1.88;;;5.50;98.00;;;;;;5036182;28;20112;-69
2022/04/08 08:11:23;;;;;;;3.00;1.58;;;5.40;98.00;;;;;;5018323;28;20141;-69
2022/04/08 08:13:49;;;;;;;4.60;1.60;;;5.40;97.50;;;;;;5016269;28;20411;-69
2022/04/08 08:16:14;;;;;;;3.75;1.50;;;5.50;96.60;;;;;;5018952;28;20022;-69
2022/04/08 08:18:40;;;;;;;3.97;1.30;;;5.70;97.10;;;;;;5035942;28;20026;-69
2022/04/08 08:21:06;;;;;;;3.38;1.17;;;5.70;97.30;;;;;;5035978;28;20026;-69
2022/04/08 08:23:31;;;;;;;3.58;1.10;;;5.70;98.00;;;;;;5035385;28;20038;-68
2022/04/08 08:25:57;;;;;;;3.92;1.48;;;5.60;97.30;;;;;;5035948;28;20101;-68
2022/04/08 08:28:23;;;;;;;3.03;1.00;;;5.70;98.00;;;;;;5026807;28;20040;-68
2022/04/08 08:30:48;;;;;;;3.20;1.23;;;5.70;98.00;;;;;;5014675;28;20322;-68
2022/04/08 08:33:14;;;;;;;4.53;1.42;;;5.70;98.00;;;;;;5016483;28;20033;-69
2022/04/08 08:35:40;;;;;;;3.38;1.10;;;5.60;97.60;;;;;;5014906;28;20064;-68
2022/04/08 08:38:07;;;;;;;2.63;1.20;;;5.70;98.00;;;;;;5017123;28;20049;-69
2022/04/08 08:40:33;;;;;;;2.97;1.30;;;6.00;98.00;;;;;;5016085;28;20036;-69
2022/04/08 08:43:03;;;;;;;3.40;1.35;;;6.40;97.40;;;;;;5021886;28;20029;-68
2022/04/08 08:45:32;;;;;;;3.67;1.20;;;6.70;97.90;;;;;;5026120;28;20030;-68
2022/04/08 08:48:05;;;;;;;3.50;1.30;;;6.80;98.00;;;;;;5014689;28;20112;-68
2022/04/08 08:50:31;;;;;;;2.10;1.17;;;6.90;98.00;;;;;;5016141;28;20026;-68
2022/04/08 08:52:57;;;;;;;2.90;1.20;;;7.00;98.00;;;;;;5016085;28;20030;-69
2022/04/08 08:55:24;;;;;;;2.75;1.20;;;7.00;98.00;;;;;;5017186;28;20101;-69
2022/04/08 08:57:51;;;;;;;3.22;1.20;;;7.30;98.00;;;;;;5034533;28;20034;-68
2022/04/08 09:00:19;;;;;;;3.63;1.70;;;7.50;98.00;;;;;;5035310;28;20433;-69
2022/04/08 09:02:49;;;;;;;5.65;2.28;;;7.40;98.00;;;;;;5018612;28;20026;-68
2022/04/08 09:05:20;;;;;;;2.88;1.50;;;7.40;98.00;;;;;;5015893;28;20049;-69
2022/04/08 09:07:54;;;;;;;3.63;1.13;;;7.70;98.00;;;;;;5033381;28;20406;-68
2022/04/08 09:10:47;;;;;;;2.17;1.10;;;7.90;98.00;;;;;;5033669;28;20049;-68
2022/04/08 09:13:20;;;;;;;2.83;1.20;;;8.10;98.00;;;;;;5019074;28;20492;-69
2022/04/08 09:15:58;;;;;;;4.63;1.97;;;8.10;98.00;;;;;;5022999;28;20402;-68
2022/04/08 09:18:30;;;;;;;4.88;2.67;;;8.10;98.00;;;;;;5029270;28;20029;-68
2022/04/08 09:20:56;;;;;;;3.08;1.20;;;8.30;98.00;;;;;;5036093;28;20029;-68
2022/04/08 09:23:22;;;;;;;2.42;0.90;;;8.20;98.00;;;;;;5037726;28;20017;-68
2022/04/08 09:25:59;;;;;;;2.58;1.17;;;8.10;98.00;;;;;;5039021;28;20037;-68
2022/04/08 09:28:31;;;;;;;7.80;4.07;;;8.30;98.00;;;;;;5038325;28;20374;-68
2022/04/08 09:30:59;;;;;;;7.97;5.05;;;8.50;98.00;;;;;;5037712;28;20402;-68
2022/04/08 09:33:26;;;;;;;2.15;1.10;;;8.70;98.00;;;;;;5038475;28;20097;-68
2022/04/08 09:35:54;;;;;;;2.60;1.20;;;8.90;98.00;;;;;;5038833;28;20361;-68
2022/04/08 09:38:30;;;;;;;3.65;1.30;;;9.00;98.00;;;;;;5027170;28;20095;-67
2022/04/08 09:41:03;;;;;;;2.22;1.20;;;9.10;98.00;;;;;;5038735;28;20318;-67
2022/04/08 09:43:40;;;;;;;3.58;1.70;;;9.10;98.00;;;;;;5034693;28;20018;-67
2022/04/08 09:46:23;;;;;;;3.35;1.50;;;9.10;98.00;;;;;;5017687;28;20466;-67
2022/04/08 09:48:49;;;;;;;2.45;1.30;;;8.90;98.00;;;;;;5024154;28;20029;-69
2022/04/08 09:51:20;;;;;;;3.47;1.10;;;8.90;98.00;;;;;;5038402;28;20434;-69
2022/04/08 09:53:53;;;;;;;3.42;1.33;;;8.90;98.00;;;;;;5023111;28;20014;-69
2022/04/08 09:56:22;;;;;;;2.63;1.10;;;8.80;98.00;;;;;;5038302;28;20371;-69
2022/04/08 09:58:57;;;;;;;4.35;1.42;;;8.70;98.00;;;;;;5038202;28;20626;-69
2022/04/08 10:01:25;;;;;;;2.45;1.30;;;8.50;98.00;;;;;;5018023;28;20144;-68
2022/04/08 10:03:52;;;;;;;5.57;2.30;;;8.30;98.00;;;;;;5018653;28;20104;-69
2022/04/08 10:06:18;;;;;;;4.15;1.80;;;8.30;97.60;;;;;;5018404;28;20109;-68
2022/04/08 10:08:44;;;;;;;2.58;1.50;;;8.30;98.00;;;;;;5021183;28;20067;-68
2022/04/08 10:11:18;;;;;;;3.63;1.80;;;8.20;97.90;;;;;;5038027;28;20041;-68
2022/04/08 10:14:07;;;;;;;;;;;8.20;97.40;;;;;;5038173;28;20596;-68
2022/04/08 10:16:39;;;;;;;5.95;3.33;;;8.20;97.30;;;;;;5007632;28;19921;-68
2022/04/08 10:19:07;;;;;;;7.07;4.45;;;8.20;97.10;;;;;;5023176;28;20025;-69
2022/04/08 10:21:38;;;;;;;5.90;2.55;;;8.30;97.20;;;;;;5033081;28;21570;-69
2022/04/08 10:24:10;;;;;;;5.53;1.90;;;8.20;98.00;;;;;;5016880;28;20025;-68
2022/04/08 10:27:01;;;;;;;3.83;2.05;;;8.10;98.00;;;;;;5018186;28;20410;-67
2022/04/08 10:29:27;;;;;;;6.47;2.33;;;8.10;97.50;;;;;;5028604;28;20434;-67
2022/04/08 10:32:02;;;;;;;7.07;4.20;;;8.10;96.40;;;;;;5026516;28;20111;-68
2022/04/08 10:34:34;;;;;;;4.03;2.03;;;8.10;96.20;;;;;;5018000;28;20056;-68
2022/04/08 10:37:01;;;;;;;11.18;6.53;;;8.10;97.80;;;;;;5019429;28;20433;-68
2022/04/08 10:39:26;;;;;;;4.72;2.60;;;8.00;96.80;;;;;;5017534;28;20310;-68
2022/04/08 10:42:02;;;;;;;4.90;3.05;;;7.90;96.20;;;;;;5017981;28;20026;-68
2022/04/08 10:44:39;;;;;;;4.80;2.58;;;7.80;95.40;;;;;;5017872;28;20057;-68
2022/04/08 10:47:13;;;;;;;4.22;2.03;;;7.80;94.70;;;;;;5028440;28;20021;-68
2022/04/08 10:49:52;;;;;;;6.60;3.67;;;7.90;94.80;;;;;;5034631;28;20035;-68
2022/04/08 10:52:24;;;;;;;6.15;2.63;;;7.60;94.40;;;;;;5027735;28;20151;-68
2022/04/08 10:55:03;;;;;;;7.22;3.38;;;7.50;93.20;;;;;;5020320;28;20044;-68
2022/04/08 10:57:45;;;;;;;3.42;1.80;;;7.40;93.20;;;;;;5024087;28;20021;-68
2022/04/08 11:00:17;;;;;;;7.10;3.97;;;7.50;92.30;;;;;;5016944;28;20422;-69
2022/04/08 11:02:44;;;;;;;12.02;6.22;;;7.50;92.90;;;;;;5015996;28;20120;-68
2022/04/08 11:05:12;;;;;;;6.43;3.55;;;7.70;92.10;;;;;;5026954;28;20094;-69
2022/04/08 11:07:42;;;;;;;6.72;3.80;;;7.90;91.70;;;;;;5023374;28;20314;-69
2022/04/08 11:10:16;;;;;;;10.75;4.75;;;7.90;93.10;;;;;;5020001;28;20033;-68
2022/04/08 11:12:50;;;;;;;4.93;2.40;;;7.90;93.90;;;;;;5021648;28;20041;-68
2022/04/08 11:15:27;;;;;;;10.40;5.20;;;7.90;94.10;;;;;;5034399;28;20373;-69
2022/04/08 11:17:53;;;;;;;9.40;3.95;;;7.90;93.90;;;;;;5022043;28;20366;-70
2022/04/08 11:20:21;;;;;;;6.47;3.47;;;7.90;93.90;;;;;;5017574;28;20022;-69
2022/04/08 11:22:52;;;;;;;6.13;3.88;;;8.00;93.20;;;;;;5017858;28;20089;-69
2022/04/08 11:25:29;;;;;;;8.07;4.03;;;8.20;94.40;;;;;;5032179;28;20131;-70
2022/04/08 11:27:59;;;;;;;6.00;3.17;;;8.30;94.60;;;;;;5021172;28;20354;-70
2022/04/08 11:30:25;;;;;;;8.00;4.78;;;8.30;95.40;;;;;;5028724;28;20033;-69
2022/04/08 11:32:51;;;;;;;6.68;3.20;;;8.40;94.40;;;;;;5034887;28;20064;-69
2022/04/08 11:35:16;;;;;;;7.80;5.32;;;8.50;95.80;;;;;;5025497;28;20419;-68
2022/04/08 11:37:42;;;;;;;6.90;3.60;;;8.50;95.30;;;;;;5033639;28;20033;-69
2022/04/08 11:40:14;;;;;;;4.50;2.08;;;8.50;94.80;;;;;;5024689;28;20048;-69
2022/04/08 11:42:40;;;;;;;2.83;1.52;;;8.50;95.10;;;;;;5034594;28;20040;-69
2022/04/08 11:45:06;;;;;;;3.15;1.42;;;8.60;95.00;;;;;;5034573;28;20033;-69
2022/04/08 11:47:33;;;;;;;1.42;0.88;;;8.80;93.50;;;;;;5020390;28;20065;-69
2022/04/08 11:50:07;;;;;;;3.70;1.70;;;9.20;95.80;;;;;;5035942;28;20083;-69
2022/04/08 11:52:34;;;;;;;8.55;2.50;;;9.30;96.60;;;;;;5036362;28;20029;-69
2022/04/08 11:55:08;;;;;;;2.00;1.00;;;9.30;96.80;;;;;;5020468;28;20033;-69
2022/04/08 11:57:35;;;;;;;6.13;1.73;;;9.40;96.20;;;;;;5017485;28;20026;-69
2022/04/08 12:00:05;;;;;;;7.53;4.03;;;9.40;97.00;;;;;;5020325;28;20331;-69
2022/04/08 12:02:31;;;;;;;2.75;1.30;;;9.40;95.70;;;;;;5033746;28;20075;-70
2022/04/08 12:04:57;;;;;;;5.40;2.85;;;9.40;97.80;;;;;;5032637;28;20029;-69
2022/04/08 12:07:30;;;;;;;7.22;2.40;;;9.40;95.70;;;;;;5016293;28;20057;-69
2022/04/08 12:09:58;;;;;;;5.97;2.67;;;9.50;96.00;;;;;;5016058;28;20049;-69
2022/04/08 12:12:31;;;;;;;3.45;1.23;;;9.40;96.50;;;;;;5016193;28;20145;-69
2022/04/08 12:15:10;;;;;;;6.10;3.00;;;9.80;96.60;;;;;;5016187;28;20425;-69
2022/04/08 12:17:45;;;;;;;2.83;1.00;;;9.80;97.90;;;;;;5015130;28;20022;-69
2022/04/08 12:20:13;;;;;;;5.05;2.55;;;9.90;98.00;;;;;;5018597;28;20109;-69
2022/04/08 12:22:39;;;;;;;5.60;2.20;;;9.80;97.20;;;;;;5034892;28;20318;-68
2022/04/08 12:25:06;;;;;;;1.92;1.08;;;9.80;96.70;;;;;;5035915;28;20029;-68
2022/04/08 12:27:35;;;;;;;2.03;0.90;;;10.00;97.70;;;;;;5035966;28;20469;-68
2022/04/08 12:30:08;;;;;;;1.67;0.80;;;10.20;98.00;;;;;;5035896;28;20026;-69
2022/04/08 12:32:36;;;;;;;1.60;0.83;;;10.30;97.90;;;;;;5034655;28;20026;-68
2022/04/08 12:35:02;;;;;;;1.85;0.80;;;10.40;98.00;;;;;;5032250;28;20068;-67
2022/04/08 12:37:28;;;;;;;2.30;1.20;;;10.40;97.80;;;;;;5016065;28;20096;-67
2022/04/08 12:39:53;;;;;;;2.63;1.00;;;10.30;98.00;;;;;;5014930;28;20407;-67
2022/04/08 12:42:19;;;;;;;1.90;0.90;;;10.30;97.60;;;;;;5015920;28;20029;-68
2022/04/08 12:44:45;;;;;;;10.20;4.80;;;10.30;97.20;;;;;;5016056;28;20030;-70
2022/04/08 12:47:11;;;;;;;8.75;5.60;;;10.00;96.70;;;;;;5018264;28;20068;-70
2022/04/08 12:49:36;;;;;;;6.45;3.92;;;9.60;95.40;;;;;;5021449;28;20053;-70
2022/04/08 12:52:05;;;;;;;6.60;3.70;;;9.40;95.20;;;;;;5039704;28;20026;-69
2022/04/08 12:54:34;;;;;;;8.02;5.43;;;9.20;94.70;;;;;;5039528;28;20021;-70
2022/04/08 12:56:59;;;;;;;11.02;6.55;;;8.90;93.30;;;;;;5039665;28;20351;-69
2022/04/08 12:59:27;;;;;;;6.93;4.25;;;8.80;93.30;;;;;;5039220;28;20111;-69